Terminal Aerodrome Forecast
Issued by NWS Mt. Holly, NJ

Home | Current Version | Previous Version | Text Only | Print | Product List | Glossary On
Versions: 1 2 3 4 5 6 7 8 9 10 11 12
000
FTUS41 KPHI 220520
TAFRDG
TAF
KRDG 220520Z 2206/2306 00000KT 6SM BR SKC
     FM220800 00000KT 2SM BR SCT250
     FM221200 VRB02KT P6SM SCT250
     FM221700 14005KT P6SM BKN250=

USA.gov is the U.S. government's official web portal to all federal, state and local government web resources and services.